»·PEaware :: FDX6158 KSMX-KONT

FDX6158 :: KSMX-KONT

FLIGHT INFORMATION

Flight Status: Arrived
Operator:
Federal Express
More flights by this operator :: More flights under this callsign
Pilot: Kevin M. (26328)
Aircraft: CESSNA 208 CARAVAN
(C208)
More flights by this aircraft type
Origin: KSMX Santa Maria Pub/Capt Hancock
United States
Destination: KONT Ontario Intl
United States
More flights between these airports :: More routes between these airports
Route: +BUELT4 RZS V12 PMD ZIGGY7
File this flight plan on PilotEdge
Remarks:
Altitude:
(Current/Filed)
11,000ft
Speed:
(Current/Filed)
165kts
Departed: 03-Jul-20 01:14 PM
Arrived: 03-Jul-20 02:15 PM
Distance/Time
Traveled:
150nm/1:00
Distance/Time
To Go:
Arrived

Flight Plot

Page will automatically refresh every two minutes.


Map Options




Map Legend


Flown Route
Filed Route
Departure Airport
Arrival Airport
Navaid (VOR, NDB)
Fix

Horizontal Profiles

Position Reports

Time Latitude Longitude Heading Altitude Ground
Speed
03-Jul-20 13:01 34.894131 -120.443196 252 266ft 0kts
03-Jul-20 13:02 34.894131 -120.443196 252 266ft 0kts
03-Jul-20 13:03 34.894131 -120.443196 252 266ft 0kts
03-Jul-20 13:04 34.894131 -120.443196 252 266ft 0kts
03-Jul-20 13:04 34.894131 -120.443196 252 266ft 0kts
03-Jul-20 13:06 34.894131 -120.443196 252 266ft 0kts
03-Jul-20 13:07 34.894131 -120.443196 252 266ft 0kts
03-Jul-20 13:07 34.894131 -120.443196 252 266ft 0kts
03-Jul-20 13:09 34.894110 -120.443280 254 266ft 4kts
03-Jul-20 13:09 34.893785 -120.445201 183 266ft 9kts
03-Jul-20 13:10 34.893507 -120.444890 169 266ft 0kts
03-Jul-20 13:11 34.893273 -120.445079 225 266ft 2kts
03-Jul-20 13:12 34.893173 -120.445203 226 266ft 7kts
03-Jul-20 13:13 34.903237 -120.458475 312 452ft 109kts
03-Jul-20 13:14 34.894183 -120.485157 209 1370ft 123kts
03-Jul-20 13:15 34.868146 -120.464361 124 2305ft 133kts
03-Jul-20 13:16 34.848035 -120.428528 129 3348ft 126kts
03-Jul-20 13:17 34.827041 -120.396767 132 4430ft 113kts
03-Jul-20 13:18 34.804657 -120.366811 140 5270ft 117kts
03-Jul-20 13:19 34.784592 -120.335679 129 6138ft 116kts
03-Jul-20 13:20 34.766043 -120.303212 130 6931ft 117kts
03-Jul-20 13:21 34.746353 -120.270432 107 7418ft 140kts
03-Jul-20 13:22 34.750965 -120.218230 90 7383ft 162kts
03-Jul-20 13:23 34.735519 -120.167290 124 7380ft 162kts
03-Jul-20 13:24 34.709252 -120.120114 126 7378ft 173kts
03-Jul-20 13:25 34.681437 -120.071231 126 7378ft 175kts
03-Jul-20 13:26 34.653647 -120.022420 126 7378ft 175kts
03-Jul-20 13:27 34.625984 -119.973895 126 7379ft 175kts
03-Jul-20 13:28 34.598288 -119.925163 126 7383ft 175kts
03-Jul-20 13:29 34.570655 -119.876615 126 7387ft 174kts
03-Jul-20 13:30 34.543001 -119.828262 126 7391ft 174kts
03-Jul-20 13:31 34.515385 -119.779980 124 7394ft 174kts
03-Jul-20 13:32 34.512793 -119.721173 85 7396ft 179kts
03-Jul-20 13:33 34.518374 -119.661214 85 7396ft 179kts
03-Jul-20 13:34 34.523199 -119.601117 86 7396ft 179kts
03-Jul-20 13:35 34.527848 -119.540931 85 7395ft 179kts
03-Jul-20 13:36 34.532352 -119.480619 86 7396ft 179kts
03-Jul-20 13:37 34.529241 -119.423211 139 7401ft 171kts
03-Jul-20 13:38 34.498135 -119.378303 130 7396ft 174kts
03-Jul-20 13:39 34.469775 -119.335772 131 7395ft 174kts
03-Jul-20 13:40 34.439148 -119.289874 131 7395ft 174kts
03-Jul-20 13:41 34.408657 -119.244237 131 7394ft 174kts
03-Jul-20 13:42 34.378029 -119.198458 131 7392ft 174kts
03-Jul-20 13:43 34.349391 -119.151238 116 7392ft 176kts
03-Jul-20 13:44 34.342349 -119.092210 90 7389ft 179kts
03-Jul-20 13:45 34.346016 -119.031979 86 7386ft 179kts
03-Jul-20 13:46 34.350537 -118.971551 86 7386ft 179kts
03-Jul-20 13:47 34.354967 -118.911159 87 7386ft 180kts
03-Jul-20 13:48 34.346686 -118.853745 114 7387ft 176kts
03-Jul-20 13:49 34.328796 -118.798377 114 7386ft 177kts
03-Jul-20 13:50 34.310152 -118.743040 115 7388ft 176kts
03-Jul-20 13:51 34.290274 -118.683579 113 6690ft 194kts
03-Jul-20 13:52 34.270037 -118.619612 109 5996ft 194kts
03-Jul-20 13:53 34.248317 -118.556266 113 5537ft 183kts
03-Jul-20 13:54 34.226881 -118.499305 112 5517ft 173kts
03-Jul-20 13:55 34.209282 -118.443908 109 5517ft 170kts
03-Jul-20 13:56 34.193020 -118.389541 110 5517ft 169kts
03-Jul-20 13:57 34.177082 -118.336969 111 5517ft 169kts
03-Jul-20 13:58 34.160590 -118.282722 111 5517ft 169kts
03-Jul-20 13:59 34.143824 -118.227457 110 5517ft 169kts
03-Jul-20 14:00 34.127001 -118.172528 110 5517ft 170kts
03-Jul-20 14:01 34.109965 -118.116871 109 5517ft 171kts
03-Jul-20 14:02 34.092314 -118.059199 110 5503ft 179kts
03-Jul-20 14:03 34.074218 -118.000359 111 5553ft 180kts
03-Jul-20 14:04 34.056016 -117.941246 112 5560ft 181kts
03-Jul-20 14:05 34.037617 -117.881563 112 5563ft 180kts
03-Jul-20 14:06 34.034115 -117.819370 91 5504ft 182kts
03-Jul-20 14:07 34.033811 -117.757812 93 5639ft 177kts
03-Jul-20 14:08 34.028046 -117.699048 100 5073ft 183kts
03-Jul-20 14:09 34.023368 -117.639415 93 3523ft 155kts
03-Jul-20 14:10 34.021798 -117.586039 95 2385ft 150kts
03-Jul-20 14:11 34.028090 -117.542590 16 1822ft 105kts
03-Jul-20 14:12 34.052120 -117.544363 301 1629ft 84kts
03-Jul-20 14:13 34.054961 -117.570674 267 1211ft 78kts
03-Jul-20 14:14 34.054875 -117.592966 251 920ft 26kts
03-Jul-20 14:15 34.054393 -117.593929 231 918ft 0kts
03-Jul-20 14:16 34.053843 -117.595855 269 916ft 9kts
03-Jul-20 14:17 34.053841 -117.600634 269 916ft 12kts
03-Jul-20 14:18 34.052366 -117.601545 177 912ft 11kts
03-Jul-20 14:19 34.052132 -117.600695 43 910ft 0kts
03-Jul-20 14:20 34.052132 -117.600695 43 910ft 0kts
03-Jul-20 14:21 34.052132 -117.600695 43 910ft 0kts
03-Jul-20 14:22 34.052132 -117.600695 43 910ft 0kts
03-Jul-20 14:23 34.052132 -117.600695 43 910ft 0kts
03-Jul-20 14:24 34.052132 -117.600695 43 910ft 0kts
03-Jul-20 14:25 34.052132 -117.600695 43 910ft 0kts
03-Jul-20 14:26 34.052132 -117.600695 43 910ft 0kts
03-Jul-20 14:27 34.052132 -117.600695 43 910ft 0kts
03-Jul-20 14:28 34.052132 -117.600695 43 910ft 0kts

Navigation Log

Ident Type
Flight plan parsing failed, navigation log unavailable